createdAt,value
2019-03-28T00:01:08.544Z,17.67
2019-03-28T00:03:39.148Z,15.13
2019-03-28T00:06:08.064Z,12.47
2019-03-28T00:08:36.851Z,14.63
2019-03-28T00:11:07.052Z,15.80
2019-03-28T00:13:37.595Z,15.63
2019-03-28T00:16:06.526Z,20.00
2019-03-28T00:18:38.894Z,17.63
2019-03-28T00:21:07.804Z,17.73
2019-03-28T00:23:42.449Z,15.80
2019-03-28T00:26:12.367Z,15.10
2019-03-28T00:28:43.105Z,23.43
2019-03-28T00:31:11.927Z,17.20
2019-03-28T00:36:20.541Z,19.10
2019-03-28T00:38:50.136Z,20.80
2019-03-28T00:41:20.987Z,18.27
2019-03-28T00:43:54.544Z,18.83
2019-03-28T00:46:24.276Z,18.60
2019-03-28T00:48:54.005Z,19.70
2019-03-28T00:51:25.284Z,14.80
2019-03-28T00:53:56.923Z,18.67
2019-03-28T00:56:27.653Z,21.43
2019-03-28T00:58:56.329Z,22.90
2019-03-28T01:01:25.036Z,18.63
2019-03-28T01:03:54.017Z,19.07
2019-03-28T01:06:29.247Z,19.15
2019-03-28T01:08:56.497Z,21.57
2019-03-28T01:11:27.066Z,23.40
2019-03-28T01:14:00.529Z,21.50
2019-03-28T01:19:27.051Z,22.77
2019-03-28T01:21:57.185Z,24.93
2019-03-28T01:24:31.136Z,21.07
2019-03-28T01:27:00.201Z,20.15
2019-03-28T01:29:30.427Z,20.43
2019-03-28T01:32:02.512Z,16.93
2019-03-28T01:34:35.993Z,19.50
2019-03-28T01:37:03.133Z,18.37
2019-03-28T01:39:33.034Z,21.23
2019-03-28T01:42:11.875Z,17.07
2019-03-28T01:47:26.960Z,22.43
2019-03-28T01:50:00.717Z,22.00
2019-03-28T01:52:33.899Z,24.35
2019-03-28T01:55:02.933Z,19.93
2019-03-28T01:57:34.611Z,20.53
2019-03-28T02:00:03.992Z,19.23
2019-03-28T02:02:35.440Z,18.50
2019-03-28T02:05:06.478Z,19.45
2019-03-28T02:07:39.564Z,18.92
2019-03-28T02:10:10.053Z,20.62
2019-03-28T02:12:40.879Z,17.47
2019-03-28T02:15:12.083Z,21.73
2019-03-28T02:17:43.854Z,24.13
2019-03-28T02:20:12.746Z,27.40
2019-03-28T02:22:42.680Z,19.67
2019-03-28T02:25:14.674Z,18.90
2019-03-28T02:27:52.122Z,18.93
2019-03-28T02:30:34.604Z,21.73
2019-03-28T02:33:04.629Z,18.30
2019-03-28T02:35:36.489Z,21.77
2019-03-28T02:38:07.693Z,19.50
2019-03-28T02:40:42.905Z,16.60
2019-03-28T02:43:14.217Z,15.43
2019-03-28T02:45:47.349Z,17.23
2019-03-28T02:48:17.593Z,19.62
2019-03-28T02:50:49.504Z,20.10
2019-03-28T02:53:21.469Z,14.60
2019-03-28T02:55:50.530Z,16.23
2019-03-28T02:58:20.853Z,21.33
2019-03-28T03:00:52.645Z,15.50
2019-03-28T03:03:26.034Z,25.83
2019-03-28T03:06:00.145Z,12.83
2019-03-28T03:08:34.929Z,19.13
2019-03-28T03:11:03.818Z,14.60
2019-03-28T03:13:37.222Z,18.00
2019-03-28T03:16:10.078Z,12.67
2019-03-28T03:18:39.199Z,16.67
2019-03-28T03:21:10.074Z,17.90
2019-03-28T03:23:43.581Z,18.73
2019-03-28T03:26:13.410Z,21.43
2019-03-28T03:28:44.697Z,16.70
2019-03-28T03:31:20.867Z,20.20
2019-03-28T03:33:49.506Z,21.13
2019-03-28T03:36:19.094Z,28.67
2019-03-28T03:38:52.033Z,20.70
2019-03-28T03:41:27.647Z,19.70
2019-03-28T03:43:59.406Z,21.10
2019-03-28T03:46:30.390Z,31.50
2019-03-28T03:49:00.322Z,36.70
2019-03-28T03:51:31.272Z,37.35
2019-03-28T03:54:06.188Z,34.33
2019-03-28T03:59:16.578Z,33.20
2019-03-28T04:01:50.409Z,26.60
2019-03-28T04:04:26.394Z,24.83
2019-03-28T04:06:57.394Z,27.00
2019-03-28T04:09:27.708Z,28.33
2019-03-28T04:12:01.701Z,30.10
2019-03-28T04:14:34.732Z,28.20
2019-03-28T04:17:05.754Z,27.32
2019-03-28T04:19:37.361Z,24.63
2019-03-28T04:22:07.419Z,24.43
2019-03-28T04:24:43.103Z,26.17
2019-03-28T04:27:15.814Z,24.40
2019-03-28T04:29:46.353Z,21.37
2019-03-28T04:32:23.123Z,30.85
2019-03-28T04:34:54.481Z,27.90
2019-03-28T04:37:24.705Z,33.97
2019-03-28T04:42:46.011Z,29.90
2019-03-28T04:45:18.737Z,32.10
2019-03-28T04:47:46.909Z,31.33
2019-03-28T04:50:22.843Z,31.55
2019-03-28T04:52:56.973Z,35.10
2019-03-28T04:55:26.506Z,39.90
2019-03-28T04:57:57.414Z,41.35
2019-03-28T05:00:31.230Z,33.87
2019-03-28T05:03:01.450Z,34.23
2019-03-28T05:05:39.865Z,36.73
2019-03-28T05:08:13.030Z,35.13
2019-03-28T05:10:43.900Z,38.27
2019-03-28T05:13:15.738Z,39.90
2019-03-28T05:15:49.403Z,47.85
2019-03-28T05:18:21.217Z,42.93
2019-03-28T05:20:55.734Z,46.63
2019-03-28T05:23:27.081Z,47.62
2019-03-28T05:25:59.505Z,50.13
2019-03-28T05:28:29.449Z,50.98
2019-03-28T05:31:00.194Z,46.00
2019-03-28T05:36:12.935Z,44.83
2019-03-28T05:38:44.887Z,52.23
2019-03-28T05:41:12.710Z,45.13
2019-03-28T05:43:40.546Z,52.03
2019-03-28T05:46:08.427Z,52.97
2019-03-28T05:48:36.303Z,49.73
2019-03-28T05:51:04.258Z,61.85
2019-03-28T05:53:32.119Z,64.20
2019-03-28T05:56:00.006Z,57.30
2019-03-28T05:58:27.873Z,51.93
2019-03-28T06:00:55.806Z,47.37
2019-03-28T06:03:37.741Z,51.50
2019-03-28T06:06:05.610Z,48.80
2019-03-28T06:08:33.454Z,55.83
2019-03-28T06:11:01.334Z,50.48
2019-03-28T06:13:29.198Z,53.20
2019-03-28T06:15:57.071Z,52.13
2019-03-28T06:18:24.919Z,42.80
2019-03-28T06:20:52.799Z,39.90
2019-03-28T06:23:20.650Z,41.70
2019-03-28T06:25:49.533Z,49.73
2019-03-28T06:28:16.382Z,42.63
2019-03-28T06:30:44.505Z,43.20
2019-03-28T06:33:12.113Z,44.37
2019-03-28T06:35:40.002Z,54.97
2019-03-28T06:38:07.850Z,50.53
2019-03-28T06:40:35.680Z,52.40
2019-03-28T06:43:03.454Z,55.93
2019-03-28T06:45:31.278Z,54.63
2019-03-28T06:47:59.142Z,52.50
2019-03-28T06:50:26.962Z,48.80
2019-03-28T06:52:54.736Z,58.93
2019-03-28T06:55:24.050Z,57.03
2019-03-28T06:57:50.378Z,53.50
2019-03-28T07:00:18.166Z,49.57
2019-03-28T07:02:45.954Z,52.50
2019-03-28T07:05:13.734Z,50.23
2019-03-28T07:07:41.534Z,50.10
2019-03-28T07:10:09.329Z,52.83
2019-03-28T07:12:37.124Z,55.87
2019-03-28T07:15:05.243Z,48.83
2019-03-28T07:17:33.057Z,51.10
2019-03-28T07:20:00.857Z,55.23
2019-03-28T07:22:28.666Z,54.75
2019-03-28T07:24:56.473Z,60.70
2019-03-28T07:27:24.291Z,48.80
2019-03-28T07:29:53.101Z,56.93
2019-03-28T07:32:19.870Z,50.80
2019-03-28T07:34:47.650Z,50.00
2019-03-28T07:37:15.639Z,51.13
2019-03-28T07:39:43.435Z,46.63
2019-03-28T07:42:11.256Z,53.83
2019-03-28T07:44:39.034Z,52.47
2019-03-28T07:47:06.889Z,48.80
2019-03-28T07:49:37.453Z,46.47
2019-03-28T07:52:02.542Z,47.23
2019-03-28T07:54:30.327Z,46.50
2019-03-28T07:56:58.135Z,49.60
2019-03-28T07:59:25.947Z,44.43
2019-03-28T08:01:53.742Z,49.67
2019-03-28T08:04:21.536Z,48.80
2019-03-28T08:06:50.421Z,47.93
2019-03-28T08:09:17.633Z,50.50
2019-03-28T08:11:48.078Z,47.10
2019-03-28T08:14:12.713Z,50.23
2019-03-28T08:16:40.539Z,50.53
2019-03-28T08:19:08.430Z,47.47
2019-03-28T08:21:36.203Z,50.73
2019-03-28T08:24:04.023Z,47.73
2019-03-28T08:26:31.818Z,50.20
2019-03-28T08:28:59.614Z,47.27
2019-03-28T08:31:27.398Z,45.27
2019-03-28T08:33:55.218Z,52.00
2019-03-28T08:36:23.002Z,48.50
2019-03-28T08:38:50.803Z,48.73
2019-03-28T08:41:19.661Z,49.57
2019-03-28T08:43:46.433Z,50.67
2019-03-28T08:46:14.215Z,45.70
2019-03-28T08:48:42.010Z,54.30
2019-03-28T08:51:09.814Z,41.20
2019-03-28T08:53:37.642Z,51.53
2019-03-28T08:56:05.461Z,48.20
2019-03-28T08:58:33.278Z,43.87
2019-03-28T09:01:01.065Z,51.70
2019-03-28T09:03:28.872Z,43.03
2019-03-28T09:05:56.691Z,49.67
2019-03-28T09:08:24.458Z,44.57
2019-03-28T09:10:52.250Z,42.47
2019-03-28T09:13:20.038Z,49.10
2019-03-28T09:15:47.826Z,39.80
2019-03-28T09:18:15.634Z,41.37
2019-03-28T09:20:43.426Z,36.00
2019-03-28T09:23:11.241Z,42.53
2019-03-28T09:25:39.010Z,39.77
2019-03-28T09:28:06.810Z,44.18
2019-03-28T09:30:47.891Z,40.93
2019-03-28T09:33:04.877Z,45.07
2019-03-28T09:35:32.673Z,41.13
2019-03-28T09:38:00.443Z,39.50
2019-03-28T09:40:28.222Z,44.20
2019-03-28T09:42:56.022Z,36.50
2019-03-28T09:45:23.847Z,43.70
2019-03-28T09:47:51.642Z,42.83
2019-03-28T09:50:19.434Z,41.60
2019-03-28T09:52:47.218Z,41.13
2019-03-28T09:55:15.015Z,39.37
2019-03-28T09:57:42.799Z,38.53
2019-03-28T10:00:10.878Z,37.20
2019-03-28T10:02:38.694Z,38.73
2019-03-28T10:05:06.538Z,34.37
2019-03-28T10:07:34.318Z,37.57
2019-03-28T10:10:02.989Z,39.17
2019-03-28T10:12:29.907Z,36.83
2019-03-28T10:14:57.706Z,38.00
2019-03-28T10:17:25.499Z,34.20
2019-03-28T10:19:53.294Z,34.40
2019-03-28T10:22:22.374Z,35.67
2019-03-28T10:24:48.899Z,39.00
2019-03-28T10:27:19.146Z,35.40
2019-03-28T10:29:44.504Z,34.97
2019-03-28T10:32:12.291Z,31.23
2019-03-28T10:34:40.146Z,31.65
2019-03-28T10:37:07.879Z,31.90
2019-03-28T10:39:35.674Z,23.30
2019-03-28T10:42:03.502Z,31.70
2019-03-28T10:44:31.302Z,30.90
2019-03-28T10:46:59.086Z,29.33
2019-03-28T10:49:26.883Z,24.00
2019-03-28T10:51:54.668Z,25.97
2019-03-28T10:54:25.579Z,27.37
2019-03-28T10:56:52.436Z,25.30
2019-03-28T10:59:23.445Z,22.50
2019-03-28T11:01:50.693Z,20.23
2019-03-28T11:04:13.701Z,28.07
2019-03-28T11:06:41.494Z,21.47
2019-03-28T11:09:09.298Z,23.80
2019-03-28T11:11:37.077Z,21.60
2019-03-28T11:14:04.874Z,19.40
2019-03-28T11:16:32.659Z,20.40
2019-03-28T11:19:00.454Z,19.63
2019-03-28T11:21:28.285Z,16.40
2019-03-28T11:23:56.085Z,13.00
2019-03-28T11:26:23.906Z,13.80
2019-03-28T11:28:51.701Z,20.23
2019-03-28T11:31:19.482Z,10.97
2019-03-28T11:33:47.634Z,10.50
2019-03-28T11:36:15.073Z,16.23
2019-03-28T11:38:42.874Z,14.90
2019-03-28T11:41:10.650Z,16.63
2019-03-28T11:43:38.454Z,21.63
2019-03-28T11:46:06.262Z,12.60
2019-03-28T11:48:34.042Z,22.30
2019-03-28T11:51:01.834Z,19.20
2019-03-28T11:53:29.638Z,15.87
2019-03-28T11:55:57.459Z,16.03
2019-03-28T11:58:25.233Z,16.87
2019-03-28T12:00:53.046Z,16.60
2019-03-28T12:03:20.827Z,17.13
2019-03-28T12:05:48.668Z,14.60
2019-03-28T12:08:16.463Z,15.23
2019-03-28T12:10:44.271Z,16.70
2019-03-28T12:13:12.051Z,14.03
2019-03-28T12:15:39.850Z,18.37
2019-03-28T12:18:07.629Z,13.27
2019-03-28T12:20:35.433Z,17.60
2019-03-28T12:23:03.302Z,24.73
2019-03-28T12:25:31.104Z,18.87
2019-03-28T12:28:00.358Z,20.70
2019-03-28T12:30:26.708Z,18.87
2019-03-28T12:32:54.482Z,16.40
2019-03-28T12:35:22.292Z,18.50
2019-03-28T12:37:50.078Z,16.90
2019-03-28T12:40:17.870Z,20.57
2019-03-28T12:42:45.665Z,18.50
2019-03-28T12:45:13.482Z,15.30
2019-03-28T12:47:43.052Z,19.50
2019-03-28T12:50:09.142Z,15.87
2019-03-28T12:52:36.925Z,19.13
2019-03-28T12:55:04.983Z,17.43
2019-03-28T12:57:32.773Z,15.90
2019-03-28T13:00:00.637Z,16.55
2019-03-28T13:02:31.791Z,17.27
2019-03-28T13:04:56.222Z,19.37
2019-03-28T13:07:24.017Z,17.80
2019-03-28T13:09:51.818Z,12.87
2019-03-28T13:12:19.597Z,13.80
2019-03-28T13:14:47.800Z,17.03
2019-03-28T13:17:15.206Z,16.20
2019-03-28T13:19:43.001Z,20.37
2019-03-28T13:22:10.789Z,13.20
2019-03-28T13:24:38.595Z,13.83
2019-03-28T13:27:06.383Z,15.97
2019-03-28T13:29:34.198Z,14.80
2019-03-28T13:32:02.005Z,14.93
2019-03-28T13:34:29.786Z,15.83
2019-03-28T13:36:57.586Z,13.20
2019-03-28T13:39:25.381Z,11.50
2019-03-28T13:41:53.190Z,14.95
2019-03-28T13:44:20.986Z,15.67
2019-03-28T13:46:48.802Z,12.60
2019-03-28T13:49:17.274Z,12.00
2019-03-28T13:51:45.078Z,10.40
2019-03-28T13:54:12.918Z,15.07
2019-03-28T13:56:40.731Z,15.48
2019-03-28T13:59:08.509Z,16.90
2019-03-28T14:01:37.128Z,16.50
2019-03-28T14:04:04.914Z,17.30
2019-03-28T14:06:32.813Z,14.67
2019-03-28T14:09:00.602Z,17.73
2019-03-28T14:11:28.407Z,16.07
2019-03-28T14:13:56.198Z,12.50
2019-03-28T14:16:23.998Z,12.90
2019-03-28T14:18:51.778Z,13.53
2019-03-28T14:21:19.578Z,15.40
2019-03-28T14:23:47.372Z,14.17
2019-03-28T14:26:15.154Z,13.50
2019-03-28T14:28:42.963Z,16.13
2019-03-28T14:31:10.850Z,16.13
2019-03-28T14:33:38.682Z,14.80
2019-03-28T14:36:06.489Z,13.00
2019-03-28T14:38:37.276Z,16.90
2019-03-28T14:41:02.150Z,19.13
2019-03-28T14:43:29.989Z,12.40
2019-03-28T14:45:57.827Z,13.53
2019-03-28T14:48:25.724Z,12.87
2019-03-28T14:50:53.669Z,15.30
2019-03-28T14:53:22.364Z,17.57
2019-03-28T14:55:49.151Z,13.03
2019-03-28T14:58:16.917Z,11.87
2019-03-28T15:00:49.029Z,10.47
2019-03-28T15:03:25.621Z,13.37
2019-03-28T15:05:44.629Z,14.57
2019-03-28T15:08:12.434Z,11.07
2019-03-28T15:10:40.258Z,13.07
2019-03-28T15:13:08.043Z,12.67
2019-03-28T15:15:35.832Z,8.53
2019-03-28T15:18:03.938Z,12.73
2019-03-28T15:20:31.454Z,12.67
2019-03-28T15:22:59.237Z,11.67
2019-03-28T15:25:27.030Z,8.43
2019-03-28T15:27:57.963Z,10.10
2019-03-28T15:30:25.766Z,7.13
2019-03-28T15:32:53.557Z,9.27
2019-03-28T15:35:21.366Z,9.53
2019-03-28T15:37:49.177Z,8.83
2019-03-28T15:40:16.985Z,8.30
2019-03-28T15:42:44.772Z,9.77
2019-03-28T15:45:12.586Z,7.87
2019-03-28T15:47:40.386Z,5.80
2019-03-28T15:50:08.220Z,9.10
2019-03-28T15:52:35.994Z,9.20
2019-03-28T15:55:03.899Z,6.43
2019-03-28T15:57:31.706Z,9.60
2019-03-28T15:59:59.505Z,6.33
2019-03-28T16:02:27.329Z,8.70
2019-03-28T16:04:55.122Z,5.77
2019-03-28T16:07:22.907Z,7.10
2019-03-28T16:09:50.706Z,5.97
2019-03-28T16:12:18.493Z,9.93
2019-03-28T16:14:46.286Z,9.47
2019-03-28T16:17:14.062Z,9.13
2019-03-28T16:19:45.010Z,11.17
2019-03-28T16:22:09.681Z,12.00
2019-03-28T16:24:37.483Z,7.33
2019-03-28T16:27:05.271Z,12.40
2019-03-28T16:29:33.794Z,8.77
2019-03-28T16:32:00.894Z,6.43
2019-03-28T16:34:28.744Z,14.70
2019-03-28T16:36:56.522Z,7.80
2019-03-28T16:39:24.307Z,11.40
2019-03-28T16:41:52.113Z,11.30
2019-03-28T16:44:19.902Z,6.40
2019-03-28T16:46:47.701Z,4.90
2019-03-28T16:49:15.490Z,7.87
2019-03-28T16:51:43.684Z,11.90
2019-03-28T16:54:11.118Z,1.83
2019-03-28T16:56:38.927Z,2.90
2019-03-28T16:59:06.720Z,8.20
2019-03-28T17:01:34.604Z,8.70
2019-03-28T17:04:02.444Z,4.67
2019-03-28T17:06:30.322Z,4.20
2019-03-28T17:08:58.107Z,8.33
2019-03-28T17:11:25.915Z,7.40
2019-03-28T17:13:53.706Z,7.10
2019-03-28T17:16:21.551Z,6.70
2019-03-28T17:18:49.335Z,6.77
2019-03-28T17:21:17.213Z,5.37
2019-03-28T17:23:44.990Z,2.53
2019-03-28T17:26:12.822Z,3.80
2019-03-28T17:28:40.610Z,3.85
2019-03-28T17:31:08.410Z,3.27
2019-03-28T17:33:36.192Z,2.60
2019-03-28T17:36:04.011Z,4.90
2019-03-28T17:38:31.789Z,5.30
2019-03-28T17:40:59.612Z,2.30
2019-03-28T17:43:27.394Z,4.93
2019-03-28T17:45:55.194Z,3.17
2019-03-28T17:48:22.982Z,7.50
2019-03-28T17:50:50.788Z,3.13
2019-03-28T17:53:19.549Z,3.07
2019-03-28T17:55:46.373Z,3.00
2019-03-28T17:58:14.151Z,16.13
2019-03-28T18:00:42.798Z,3.17
2019-03-28T18:03:10.582Z,3.50
2019-03-28T18:05:40.669Z,3.17
2019-03-28T18:08:06.186Z,5.20
2019-03-28T18:10:33.966Z,2.50
2019-03-28T18:13:01.765Z,5.70
2019-03-28T18:15:29.542Z,2.00
2019-03-28T18:17:57.346Z,2.00
2019-03-28T18:20:25.133Z,2.90
2019-03-28T18:22:52.942Z,4.60
2019-03-28T18:25:20.722Z,3.93
2019-03-28T18:27:48.538Z,6.35
2019-03-28T18:30:16.345Z,5.67
2019-03-28T18:32:44.861Z,6.33
2019-03-28T18:35:11.950Z,7.23
2019-03-28T18:37:39.766Z,6.50
2019-03-28T18:40:07.589Z,5.27
2019-03-28T18:42:35.400Z,5.40
2019-03-28T18:45:03.270Z,7.03
2019-03-28T18:47:31.075Z,7.63
2019-03-28T18:49:58.863Z,9.70
2019-03-28T18:52:26.763Z,7.30
2019-03-28T18:54:54.546Z,9.27
2019-03-28T18:57:22.371Z,7.10
2019-03-28T18:59:50.230Z,7.77
2019-03-28T19:02:18.040Z,6.63
2019-03-28T19:04:45.864Z,10.40
2019-03-28T19:07:13.662Z,7.00
2019-03-28T19:09:41.626Z,5.23
2019-03-28T19:12:09.426Z,8.63
2019-03-28T19:14:37.214Z,5.07
2019-03-28T19:17:05.546Z,5.17
2019-03-28T19:19:39.195Z,9.48
2019-03-28T19:22:01.154Z,6.90
2019-03-28T19:24:28.934Z,11.10
2019-03-28T19:26:56.730Z,7.00
2019-03-28T19:29:24.512Z,7.90
2019-03-28T19:31:52.306Z,11.07
2019-03-28T19:34:20.091Z,8.27
2019-03-28T19:36:47.886Z,11.43
2019-03-28T19:39:17.566Z,13.03
2019-03-28T19:41:45.378Z,8.00
2019-03-28T19:44:13.157Z,6.67
2019-03-28T19:46:40.926Z,9.40
2019-03-28T19:49:08.746Z,9.80
2019-03-28T19:51:36.539Z,14.60
2019-03-28T19:54:04.354Z,10.93
2019-03-28T19:56:32.109Z,12.57
2019-03-28T19:58:59.965Z,11.93
2019-03-28T20:01:27.738Z,10.67
2019-03-28T20:03:55.595Z,13.00
2019-03-28T20:06:24.285Z,14.60
2019-03-28T20:08:51.179Z,10.93
2019-03-28T20:11:18.984Z,8.27
2019-03-28T20:13:46.762Z,12.00
2019-03-28T20:16:14.594Z,9.80
2019-03-28T20:18:43.178Z,9.60
2019-03-28T20:21:10.166Z,7.50
2019-03-28T20:23:37.966Z,8.40
2019-03-28T20:26:05.757Z,10.13
2019-03-28T20:28:33.591Z,7.77
2019-03-28T20:31:01.487Z,6.05
2019-03-28T20:33:29.278Z,6.87
2019-03-28T20:36:12.032Z,8.40
2019-03-28T20:38:24.858Z,5.57
2019-03-28T20:40:52.642Z,7.33
2019-03-28T20:43:20.448Z,6.47
2019-03-28T20:45:48.247Z,5.03
2019-03-28T20:48:16.951Z,5.50
2019-03-28T20:50:43.874Z,9.57
2019-03-28T20:53:12.013Z,12.40
2019-03-28T20:55:39.564Z,5.33
2019-03-28T20:58:07.384Z,6.33
2019-03-28T21:00:39.064Z,6.00
2019-03-28T21:03:06.322Z,8.47
2019-03-28T21:05:34.110Z,8.33
2019-03-28T21:08:01.925Z,6.60
2019-03-28T21:10:33.141Z,9.23
2019-03-28T21:12:57.602Z,5.33
2019-03-28T21:15:25.378Z,9.43
2019-03-28T21:17:53.185Z,8.57
2019-03-28T21:20:20.962Z,7.43
2019-03-28T21:22:48.838Z,8.77
2019-03-28T21:25:16.628Z,6.73
2019-03-28T21:27:44.443Z,7.45
2019-03-28T21:30:12.228Z,8.53
2019-03-28T21:32:40.062Z,9.00
2019-03-28T21:35:07.886Z,8.30
2019-03-28T21:37:35.690Z,7.60
2019-03-28T21:40:03.525Z,7.50
2019-03-28T21:42:31.303Z,7.40
2019-03-28T21:44:59.116Z,7.40
2019-03-28T21:47:26.914Z,6.10
2019-03-28T21:49:54.685Z,6.93
2019-03-28T21:52:22.489Z,8.37
2019-03-28T21:54:50.788Z,9.60
2019-03-28T21:57:18.079Z,6.20
2019-03-28T21:59:45.881Z,8.60
2019-03-28T22:02:13.683Z,7.67
2019-03-28T22:04:41.464Z,6.70
2019-03-28T22:07:09.273Z,6.77
2019-03-28T22:09:39.611Z,8.17
2019-03-28T22:12:04.901Z,9.70
2019-03-28T22:14:32.678Z,8.13
2019-03-28T22:17:00.479Z,7.20
2019-03-28T22:19:28.282Z,9.53
2019-03-28T22:21:56.207Z,7.60
2019-03-28T22:24:23.901Z,9.60
2019-03-28T22:26:51.733Z,10.00
2019-03-28T22:29:20.748Z,8.97
2019-03-28T22:31:47.485Z,13.00
2019-03-28T22:34:15.290Z,12.93
2019-03-28T22:36:56.205Z,12.27
2019-03-28T22:39:10.887Z,11.57
2019-03-28T22:41:38.666Z,13.33
2019-03-28T22:44:06.613Z,12.40
2019-03-28T22:46:34.401Z,13.47
2019-03-28T22:49:02.194Z,12.77
2019-03-28T22:51:31.703Z,11.50
2019-03-28T22:53:57.766Z,9.00
2019-03-28T22:56:25.557Z,12.90
2019-03-28T22:58:53.391Z,9.70
2019-03-28T23:01:21.177Z,12.67
2019-03-28T23:03:48.982Z,11.87
2019-03-28T23:06:16.763Z,13.60
2019-03-28T23:08:44.577Z,11.27
2019-03-28T23:11:12.365Z,11.80
2019-03-28T23:13:40.181Z,14.07
2019-03-28T23:16:07.973Z,14.73
2019-03-28T23:18:35.786Z,11.03
2019-03-28T23:21:03.591Z,12.37
2019-03-28T23:23:31.517Z,10.35
2019-03-28T23:25:59.307Z,11.07
2019-03-28T23:28:27.110Z,15.77
2019-03-28T23:30:54.958Z,14.97
2019-03-28T23:33:22.736Z,11.20
2019-03-28T23:35:50.513Z,11.07
2019-03-28T23:38:18.318Z,9.17
2019-03-28T23:40:46.109Z,9.77
2019-03-28T23:43:13.918Z,9.83
2019-03-28T23:45:41.697Z,10.37
2019-03-28T23:48:09.778Z,11.23
2019-03-28T23:50:37.558Z,8.60
2019-03-28T23:53:05.399Z,12.97
2019-03-28T23:55:33.182Z,11.30
2019-03-28T23:58:00.975Z,9.10
